Time;durP1;ratioP1;P1;durP2;ratioP2;P2;SDS_P1;SDS_P2;PMS_P1;PMS_P2;Temp;Humidity;BMP_temperature;BMP_pressure;BME280_temperature;BME280_humidity;BME280_pressure;Samples;Min_cycle;Max_cycle;Signal;HPM_P1;HPM_P2
2023/12/24 11:23:06;;;;;;;3.80;3.70;;;11.70;99.90;;;;;;5042732;28;20575;-61
2023/12/24 11:25:40;;;;;;;4.17;3.97;;;11.60;99.90;;;;;;5043306;28;20429;-60
2023/12/24 11:28:10;;;;;;;3.93;3.80;;;11.80;99.90;;;;;;5044101;28;20933;-61
2023/12/24 11:31:06;;;;;;;220.30;140.13;;;11.90;99.90;;;;;;5046034;28;20419;-63
2023/12/24 11:33:31;;;;;;;14.97;13.53;;;12.00;99.90;;;;;;5038863;28;20438;-64
2023/12/24 11:36:01;;;;;;;4.40;4.30;;;12.10;99.90;;;;;;5042619;28;20428;-66
2023/12/24 11:38:36;;;;;;;4.40;4.10;;;12.20;99.90;;;;;;5045387;28;20184;-62
2023/12/24 11:41:15;;;;;;;5.10;4.97;;;12.20;99.90;;;;;;5042717;28;20457;-64
2023/12/24 11:43:52;;;;;;;4.70;4.60;;;12.20;99.90;;;;;;5043560;28;20452;-75
2023/12/24 11:46:19;;;;;;;4.23;4.13;;;12.30;99.90;;;;;;5044874;28;20431;-68
2023/12/24 11:48:45;;;;;;;4.47;4.37;;;12.40;99.90;;;;;;5054323;28;20441;-68
2023/12/24 11:51:11;;;;;;;5.70;5.40;;;12.40;99.90;;;;;;5038743;28;20445;-68
2023/12/24 11:53:40;;;;;;;4.60;4.50;;;12.40;99.90;;;;;;5041054;28;20436;-68
2023/12/24 11:56:13;;;;;;;4.17;4.07;;;12.50;99.90;;;;;;5051109;28;20476;-68
2023/12/24 11:59:00;;;;;;;4.10;4.00;;;12.40;99.90;;;;;;5045667;28;20428;-66
2023/12/24 12:01:28;;;;;;;5.57;5.37;;;12.40;99.90;;;;;;5037506;28;20478;-69
2023/12/24 12:04:03;;;;;;;4.93;4.63;;;12.30;99.90;;;;;;5039406;28;20452;-72
2023/12/24 12:06:34;;;;;;;5.13;4.93;;;12.50;99.90;;;;;;5038155;28;20507;-74
2023/12/24 12:09:06;;;;;;;5.93;5.63;;;12.50;99.90;;;;;;5049570;28;20433;-70
2023/12/24 12:11:32;;;;;;;5.30;5.20;;;12.50;99.90;;;;;;5062473;28;20434;-69
2023/12/24 12:14:01;;;;;;;4.70;4.40;;;12.50;99.90;;;;;;5042169;28;20521;-67
2023/12/24 12:16:27;;;;;;;5.67;5.40;;;12.50;99.90;;;;;;5027844;28;20459;-68
2023/12/24 12:18:53;;;;;;;5.63;5.43;;;12.50;99.90;;;;;;5047732;28;20433;-71
2023/12/24 12:21:19;;;;;;;4.10;4.00;;;12.60;99.90;;;;;;5042105;28;20492;-66
2023/12/24 12:23:45;;;;;;;4.07;3.97;;;12.60;99.90;;;;;;5040668;28;20216;-68
2023/12/24 12:26:10;;;;;;;4.40;4.30;;;12.70;99.90;;;;;;5044718;28;20184;-68
2023/12/24 12:28:36;;;;;;;4.97;4.77;;;12.70;99.90;;;;;;5040018;28;20446;-67
2023/12/24 12:31:03;;;;;;;4.57;4.37;;;12.70;99.90;;;;;;5036543;28;20253;-67
2023/12/24 12:33:28;;;;;;;5.10;4.90;;;12.80;99.90;;;;;;5007851;28;20440;-68
2023/12/24 12:35:55;;;;;;;4.70;4.50;;;12.80;99.90;;;;;;5030462;28;20428;-71
2023/12/24 12:38:22;;;;;;;4.80;4.50;;;12.80;99.90;;;;;;5026726;28;20432;-68
2023/12/24 12:40:49;;;;;;;5.30;5.00;;;12.90;99.90;;;;;;5033483;28;20442;-70
2023/12/24 12:43:16;;;;;;;4.77;4.57;;;12.70;99.90;;;;;;5033346;28;21107;-68
2023/12/24 12:45:42;;;;;;;4.80;4.70;;;12.70;99.90;;;;;;5027002;28;20436;-69
2023/12/24 12:48:09;;;;;;;5.60;5.30;;;12.70;99.90;;;;;;5019481;28;20465;-68
2023/12/24 12:50:35;;;;;;;4.90;4.70;;;12.70;99.90;;;;;;5021716;28;20434;-68
2023/12/24 12:53:01;;;;;;;5.50;5.30;;;12.70;99.90;;;;;;5029516;28;20430;-69
2023/12/24 12:55:29;;;;;;;5.33;5.03;;;12.70;99.90;;;;;;5026474;28;20947;-68
2023/12/24 12:57:55;;;;;;;5.63;5.33;;;12.70;99.90;;;;;;5029197;28;20472;-71
2023/12/24 13:00:23;;;;;;;5.63;5.33;;;12.70;99.90;;;;;;5007616;28;20459;-70
2023/12/24 13:02:50;;;;;;;5.40;5.20;;;12.70;99.90;;;;;;5028414;28;20973;-67
2023/12/24 13:05:42;;;;;;;4.83;4.63;;;12.80;99.90;;;;;;5026873;28;20431;-69
2023/12/24 13:08:15;;;;;;;4.57;4.47;;;12.70;99.90;;;;;;5027917;28;20431;-69
2023/12/24 13:10:42;;;;;;;4.57;4.47;;;12.70;99.90;;;;;;5031510;28;20417;-68
2023/12/24 13:13:24;;;;;;;6.80;6.30;;;12.70;99.90;;;;;;5020126;28;20505;-69
2023/12/24 13:16:07;;;;;;;4.27;4.07;;;12.70;99.90;;;;;;5027118;28;20530;-69
2023/12/24 13:18:34;;;;;;;4.20;4.10;;;12.70;99.90;;;;;;5024701;28;20462;-73
2023/12/24 13:21:03;;;;;;;4.20;3.90;;;12.70;99.90;;;;;;5026329;28;20483;-74
2023/12/24 13:23:29;;;;;;;4.17;4.07;;;12.70;99.90;;;;;;5052418;28;20446;-69
2023/12/24 13:25:54;;;;;;;4.30;4.00;;;12.80;99.90;;;;;;5029564;28;20916;-71
2023/12/24 13:28:21;;;;;;;4.07;3.97;;;12.70;99.90;;;;;;5033728;28;20187;-64
2023/12/24 13:30:47;;;;;;;3.90;3.80;;;12.80;99.90;;;;;;5025322;28;20432;-62
2023/12/24 13:33:14;;;;;;;4.10;4.00;;;12.80;99.90;;;;;;5025378;28;20467;-63
2023/12/24 13:35:42;;;;;;;4.47;4.27;;;12.80;99.90;;;;;;5034738;28;20439;-61
2023/12/24 13:38:11;;;;;;;4.57;4.47;;;12.70;99.90;;;;;;5028109;28;20503;-61
2023/12/24 13:40:37;;;;;;;4.23;4.13;;;12.70;99.90;;;;;;5026733;28;20458;-63
2023/12/24 13:43:05;;;;;;;4.30;4.20;;;12.70;99.90;;;;;;5029876;28;20420;-62
2023/12/24 13:45:32;;;;;;;4.63;4.43;;;12.80;99.90;;;;;;5056200;28;20434;-62
2023/12/24 13:48:02;;;;;;;4.17;4.07;;;12.80;99.90;;;;;;5025574;28;20427;-65
2023/12/24 13:50:28;;;;;;;4.23;4.13;;;12.80;99.90;;;;;;5022362;28;20436;-61
2023/12/24 13:52:54;;;;;;;4.10;4.00;;;12.80;99.90;;;;;;5029293;28;20440;-63
2023/12/24 13:55:22;;;;;;;7.90;7.20;;;12.80;99.90;;;;;;5026442;28;20417;-60
2023/12/24 13:57:48;;;;;;;4.00;3.90;;;12.80;99.90;;;;;;5028209;28;20433;-62
2023/12/24 14:00:14;;;;;;;4.77;4.57;;;12.70;99.90;;;;;;5026375;28;20439;-61
2023/12/24 14:02:41;;;;;;;4.50;4.40;;;12.80;99.90;;;;;;5026378;28;20467;-61
2023/12/24 14:05:10;;;;;;;4.17;4.07;;;12.80;99.90;;;;;;5023636;28;20431;-61
2023/12/24 14:07:36;;;;;;;4.30;4.20;;;12.80;99.90;;;;;;5021682;28;20425;-60
2023/12/24 14:10:02;;;;;;;4.30;4.20;;;12.70;99.90;;;;;;5028337;28;20423;-61
2023/12/24 14:12:27;;;;;;;4.50;4.40;;;12.70;99.90;;;;;;5025823;28;20469;-61
2023/12/24 14:14:53;;;;;;;4.80;4.60;;;12.70;99.90;;;;;;5024908;28;20202;-61
2023/12/24 14:17:19;;;;;;;4.40;4.30;;;12.70;99.90;;;;;;5025837;28;20422;-61
2023/12/24 14:19:45;;;;;;;4.00;3.90;;;12.70;99.90;;;;;;5028253;28;20695;-61
2023/12/24 14:22:12;;;;;;;4.20;4.10;;;12.80;99.90;;;;;;5022614;28;20317;-61
2023/12/24 14:24:38;;;;;;;4.90;4.60;;;12.70;99.90;;;;;;5027990;28;20433;-61
2023/12/24 14:27:04;;;;;;;4.40;4.30;;;12.80;99.90;;;;;;5021131;28;20473;-63
2023/12/24 14:29:30;;;;;;;4.67;4.47;;;12.80;99.90;;;;;;5028291;28;20795;-61
2023/12/24 14:31:56;;;;;;;4.43;4.33;;;12.70;99.90;;;;;;5026313;28;20462;-63
2023/12/24 14:34:22;;;;;;;4.00;3.90;;;12.70;99.90;;;;;;5023579;28;20207;-63
2023/12/24 14:36:48;;;;;;;4.70;4.60;;;12.80;99.90;;;;;;5025410;28;20955;-62
2023/12/24 14:39:14;;;;;;;4.33;4.23;;;12.80;99.90;;;;;;5021678;28;20901;-63
2023/12/24 14:41:39;;;;;;;5.03;4.83;;;12.80;99.90;;;;;;5026136;28;20200;-63
2023/12/24 14:44:05;;;;;;;4.63;4.43;;;12.70;99.90;;;;;;5020079;28;20437;-65
2023/12/24 14:46:31;;;;;;;4.20;4.10;;;12.80;99.90;;;;;;5025062;28;20658;-62
2023/12/24 14:48:57;;;;;;;4.40;4.30;;;12.80;99.90;;;;;;5021747;28;20180;-61
2023/12/24 14:51:22;;;;;;;4.13;4.03;;;12.80;99.90;;;;;;5004442;28;20247;-61
2023/12/24 14:53:48;;;;;;;4.40;4.30;;;12.70;99.90;;;;;;5025377;28;20189;-62
2023/12/24 14:56:14;;;;;;;4.97;4.77;;;12.70;99.90;;;;;;5027235;28;20188;-62
2023/12/24 14:58:41;;;;;;;4.50;4.40;;;12.80;99.90;;;;;;5025104;28;20825;-62
2023/12/24 15:01:08;;;;;;;4.70;4.60;;;12.80;99.90;;;;;;5022055;28;20444;-62
2023/12/24 15:03:34;;;;;;;4.80;4.60;;;12.80;99.90;;;;;;5025055;28;20427;-62
2023/12/24 15:06:00;;;;;;;5.50;5.30;;;12.80;99.90;;;;;;5024629;28;20831;-61
2023/12/24 15:08:26;;;;;;;4.80;4.60;;;12.90;99.90;;;;;;5022436;28;20425;-62
2023/12/24 15:10:52;;;;;;;5.70;5.50;;;12.90;99.90;;;;;;5026652;28;20474;-61
2023/12/24 15:13:18;;;;;;;5.23;5.03;;;12.90;99.90;;;;;;5020206;28;20548;-61
2023/12/24 15:15:43;;;;;;;5.70;5.50;;;12.90;99.90;;;;;;5024695;28;20724;-63
2023/12/24 15:18:09;;;;;;;5.07;4.97;;;13.00;99.90;;;;;;5022774;28;20616;-62
2023/12/24 15:20:35;;;;;;;4.97;4.67;;;13.00;99.90;;;;;;5025082;28;20424;-61
2023/12/24 15:23:01;;;;;;;4.47;4.37;;;13.00;99.90;;;;;;5024692;28;20446;-62
2023/12/24 15:25:27;;;;;;;4.70;4.50;;;13.00;99.90;;;;;;5024394;28;20223;-62
2023/12/24 15:27:53;;;;;;;4.47;4.17;;;13.00;99.90;;;;;;5021390;28;20185;-61
2023/12/24 15:30:19;;;;;;;4.43;4.33;;;12.90;99.90;;;;;;5024513;28;20620;-61
2023/12/24 15:32:45;;;;;;;5.43;5.00;;;12.90;99.90;;;;;;5026536;28;20790;-62
2023/12/24 15:35:14;;;;;;;5.17;4.97;;;13.00;99.90;;;;;;5024944;28;20189;-62
2023/12/24 15:37:40;;;;;;;5.23;5.03;;;13.00;99.90;;;;;;5023256;28;20261;-61
2023/12/24 15:40:07;;;;;;;5.33;5.13;;;13.00;99.90;;;;;;5033760;28;20428;-62
2023/12/24 15:42:33;;;;;;;4.70;4.50;;;13.00;99.90;;;;;;5025845;28;20443;-62
2023/12/24 15:45:00;;;;;;;5.90;5.47;;;13.00;99.90;;;;;;5021223;28;20428;-61
2023/12/24 15:47:29;;;;;;;6.63;6.17;;;13.00;99.90;;;;;;5038260;28;20485;-61
2023/12/24 15:49:55;;;;;;;5.23;5.03;;;13.00;99.90;;;;;;5028418;28;20435;-62
2023/12/24 15:52:23;;;;;;;5.63;5.43;;;13.00;99.90;;;;;;5023914;28;20577;-62
2023/12/24 15:54:49;;;;;;;5.50;5.30;;;13.10;99.90;;;;;;5029565;28;20485;-61
2023/12/24 15:57:15;;;;;;;5.37;5.03;;;13.10;99.90;;;;;;5035214;28;20460;-61
2023/12/24 15:59:43;;;;;;;5.40;5.20;;;13.10;99.90;;;;;;5034703;28;20495;-62
2023/12/24 16:02:10;;;;;;;5.50;5.30;;;13.10;99.90;;;;;;5040057;28;20933;-62
2023/12/24 16:04:36;;;;;;;5.80;5.50;;;13.10;99.90;;;;;;5026709;28;20431;-61
2023/12/24 16:07:02;;;;;;;4.70;4.50;;;13.10;99.90;;;;;;5026530;28;20412;-61
2023/12/24 16:09:28;;;;;;;5.40;5.07;;;13.10;99.90;;;;;;5031920;28;20443;-61
2023/12/24 16:11:54;;;;;;;4.97;4.67;;;13.10;99.90;;;;;;5035086;28;20960;-61
2023/12/24 16:14:20;;;;;;;5.00;4.70;;;13.10;99.90;;;;;;5034216;28;20760;-61
2023/12/24 16:16:46;;;;;;;5.10;4.80;;;13.10;99.90;;;;;;5028852;28;20436;-61
2023/12/24 16:19:12;;;;;;;5.30;5.00;;;13.10;99.90;;;;;;5035170;28;20437;-67
2023/12/24 16:21:39;;;;;;;5.00;4.80;;;13.10;99.90;;;;;;5054230;28;20560;-67
2023/12/24 16:24:06;;;;;;;5.93;5.53;;;13.10;99.90;;;;;;5045989;28;20435;-67
2023/12/24 16:26:32;;;;;;;5.00;4.80;;;13.20;99.90;;;;;;5036641;28;20420;-70
2023/12/24 16:28:58;;;;;;;5.60;5.33;;;13.20;99.90;;;;;;5043709;28;20427;-69
2023/12/24 16:31:23;;;;;;;5.60;5.40;;;13.20;99.90;;;;;;5038290;28;20475;-71
2023/12/24 16:33:49;;;;;;;5.00;4.80;;;13.20;99.90;;;;;;5037454;28;20707;-69
2023/12/24 16:36:22;;;;;;;4.77;4.67;;;13.10;99.90;;;;;;5013515;28;20588;-69
2023/12/24 16:38:48;;;;;;;4.87;4.67;;;13.20;99.90;;;;;;5031492;28;20272;-72
2023/12/24 16:41:20;;;;;;;5.40;5.20;;;13.10;99.90;;;;;;5034178;28;20486;-72
2023/12/24 16:43:46;;;;;;;4.90;4.77;;;13.20;99.90;;;;;;5031929;28;20862;-71
2023/12/24 16:46:16;;;;;;;4.77;4.57;;;13.20;99.90;;;;;;5035747;28;20523;-71
2023/12/24 16:48:42;;;;;;;5.00;4.80;;;13.20;99.90;;;;;;5033603;28;20510;-69
2023/12/24 16:51:18;;;;;;;4.67;4.37;;;13.20;99.90;;;;;;5031642;28;20482;-66
2023/12/24 16:53:44;;;;;;;15.00;13.70;;;13.20;99.90;;;;;;5031881;28;20424;-75
2023/12/24 16:56:10;;;;;;;7.87;7.10;;;13.20;99.90;;;;;;5034374;28;20423;-69
2023/12/24 16:58:36;;;;;;;5.60;5.40;;;13.20;99.90;;;;;;5033760;28;20431;-71
2023/12/24 17:01:02;;;;;;;5.30;5.00;;;13.30;99.90;;;;;;5045014;28;20780;-72
2023/12/24 17:03:28;;;;;;;5.00;4.90;;;13.30;99.90;;;;;;5032570;28;20290;-70
2023/12/24 17:05:53;;;;;;;5.07;4.87;;;13.20;99.90;;;;;;5032892;28;20463;-72
2023/12/24 17:08:19;;;;;;;5.10;4.80;;;13.20;99.90;;;;;;5031339;28;20181;-71
2023/12/24 17:10:49;;;;;;;5.10;4.90;;;13.30;99.90;;;;;;5033898;28;20185;-71
2023/12/24 17:13:15;;;;;;;4.83;4.73;;;13.20;99.90;;;;;;5033489;28;20270;-70
2023/12/24 17:15:47;;;;;;;4.97;4.80;;;13.20;99.90;;;;;;5036024;28;20452;-72
2023/12/24 17:18:13;;;;;;;5.07;4.87;;;13.20;99.90;;;;;;5038036;28;20761;-66
2023/12/24 17:20:42;;;;;;;4.60;4.33;;;13.10;99.90;;;;;;5029560;28;20428;-72
2023/12/24 17:23:08;;;;;;;4.67;4.47;;;13.10;99.90;;;;;;5030055;28;20448;-66
2023/12/24 17:25:34;;;;;;;4.57;4.47;;;13.10;99.90;;;;;;5033712;28;20429;-71
2023/12/24 17:27:59;;;;;;;4.07;3.97;;;13.10;99.90;;;;;;5037043;28;20428;-71
2023/12/24 17:30:25;;;;;;;4.40;4.30;;;13.00;99.90;;;;;;5027319;28;20388;-72
2023/12/24 17:32:51;;;;;;;4.63;4.40;;;13.00;99.90;;;;;;5026084;28;20212;-72
2023/12/24 17:35:17;;;;;;;4.70;4.50;;;13.10;99.90;;;;;;5031173;28;20193;-67
2023/12/24 17:37:44;;;;;;;4.30;4.20;;;13.10;99.90;;;;;;5035644;28;20176;-66
2023/12/24 17:40:10;;;;;;;4.40;4.30;;;13.10;99.90;;;;;;5036704;28;20421;-67
2023/12/24 17:42:36;;;;;;;4.70;4.50;;;13.10;99.90;;;;;;5035328;28;20427;-74
2023/12/24 17:45:02;;;;;;;4.90;4.60;;;13.10;99.90;;;;;;5031748;28;20440;-74
2023/12/24 17:47:28;;;;;;;4.57;4.43;;;13.10;99.90;;;;;;5034830;28;20427;-69
2023/12/24 17:49:54;;;;;;;4.87;4.77;;;13.10;99.90;;;;;;5038213;28;20269;-70
2023/12/24 17:52:20;;;;;;;5.00;4.80;;;13.10;99.90;;;;;;5038694;28;20613;-75
2023/12/24 17:54:46;;;;;;;5.43;5.23;;;13.10;99.90;;;;;;5041180;28;20688;-70
2023/12/24 17:57:12;;;;;;;5.00;4.70;;;13.10;99.90;;;;;;5038666;28;20434;-69
2023/12/24 17:59:41;;;;;;;5.23;5.10;;;13.10;99.90;;;;;;5039061;28;20840;-71
2023/12/24 18:02:08;;;;;;;4.93;4.80;;;13.10;99.90;;;;;;5041265;28;20458;-73
2023/12/24 18:04:34;;;;;;;5.30;5.10;;;13.20;99.90;;;;;;5035097;28;20424;-74
2023/12/24 18:06:59;;;;;;;5.10;4.70;;;13.20;99.90;;;;;;5037542;28;20500;-75
2023/12/24 18:09:25;;;;;;;4.90;4.70;;;13.20;99.90;;;;;;5043620;28;20915;-75
2023/12/24 18:11:51;;;;;;;5.07;4.87;;;13.20;99.90;;;;;;5034077;28;20308;-75
2023/12/24 18:14:17;;;;;;;5.00;4.80;;;13.20;99.90;;;;;;5035905;28;20196;-74
2023/12/24 18:16:43;;;;;;;4.90;4.70;;;13.20;99.90;;;;;;5040562;28;20177;-75
2023/12/24 18:19:09;;;;;;;4.50;4.40;;;13.20;99.90;;;;;;5039385;28;20431;-67
2023/12/24 18:21:38;;;;;;;5.00;4.87;;;13.20;99.90;;;;;;5038583;28;20681;-70
2023/12/24 18:24:05;;;;;;;4.40;4.30;;;13.20;99.90;;;;;;5070124;28;20457;-74
2023/12/24 18:26:31;;;;;;;4.57;4.37;;;13.20;99.90;;;;;;5036876;28;20515;-73
2023/12/24 18:28:57;;;;;;;4.50;4.30;;;13.20;99.90;;;;;;5045894;28;20521;-75
2023/12/24 18:31:23;;;;;;;4.80;4.60;;;13.20;99.90;;;;;;5027535;28;21033;-72
2023/12/24 18:33:49;;;;;;;4.50;4.40;;;13.20;99.90;;;;;;5039213;28;20207;-74
2023/12/24 18:36:20;;;;;;;4.53;4.33;;;13.10;99.90;;;;;;5042410;28;20547;-73
2023/12/24 18:38:46;;;;;;;5.10;4.90;;;13.10;99.90;;;;;;5036323;28;20487;-70
2023/12/24 18:41:26;;;;;;;4.53;4.37;;;13.20;99.90;;;;;;5038121;28;20426;-70
2023/12/24 18:43:53;;;;;;;4.30;4.20;;;13.20;99.90;;;;;;5033693;28;20636;-71
2023/12/24 18:46:18;;;;;;;27.80;20.50;;;13.10;99.90;;;;;;5037844;28;20849;-73
2023/12/24 18:48:45;;;;;;;56.53;50.37;;;13.10;99.90;;;;;;5025406;28;20457;-69
2023/12/24 18:51:18;;;;;;;11.20;10.10;;;13.10;99.90;;;;;;5025464;28;20244;-67
2023/12/24 18:53:45;;;;;;;5.40;5.10;;;13.10;99.90;;;;;;5031137;28;20433;-74
2023/12/24 18:56:31;;;;;;;5.37;4.97;;;13.20;99.90;;;;;;5029937;28;20425;-66
2023/12/24 18:58:58;;;;;;;5.10;4.80;;;13.20;99.90;;;;;;5029068;28;20433;-73
2023/12/24 19:01:24;;;;;;;4.60;4.50;;;13.20;99.90;;;;;;5035153;28;20457;-74
2023/12/24 19:03:50;;;;;;;4.50;4.27;;;13.20;99.90;;;;;;5032219;28;20782;-73
2023/12/24 19:06:26;;;;;;;5.07;4.77;;;13.20;99.90;;;;;;5035044;28;20436;-69
2023/12/24 19:08:53;;;;;;;5.23;4.93;;;13.20;99.90;;;;;;5030456;28;20236;-71
2023/12/24 19:11:19;;;;;;;5.73;5.23;;;13.20;99.90;;;;;;5027427;28;20527;-72
2023/12/24 19:13:45;;;;;;;5.90;5.40;;;13.20;99.90;;;;;;5031670;28;20437;-72
2023/12/24 19:16:13;;;;;;;5.53;5.23;;;13.20;99.90;;;;;;5040530;28;20476;-72
2023/12/24 19:18:41;;;;;;;5.67;5.17;;;13.20;99.90;;;;;;5031816;28;20265;-73
2023/12/24 19:21:09;;;;;;;6.07;5.50;;;13.20;99.90;;;;;;5031868;28;20487;-72
2023/12/24 19:23:34;;;;;;;6.17;5.77;;;13.20;99.90;;;;;;5032508;28;20463;-72
2023/12/24 19:26:00;;;;;;;6.30;5.80;;;13.20;99.90;;;;;;5036039;28;20466;-72
2023/12/24 19:28:26;;;;;;;6.63;6.03;;;13.20;99.90;;;;;;5034621;28;20197;-73
2023/12/24 19:30:52;;;;;;;7.33;6.33;;;13.20;99.90;;;;;;5032077;28;20185;-72
2023/12/24 19:33:17;;;;;;;6.73;6.07;;;13.20;99.90;;;;;;5030123;28;20193;-71
2023/12/24 19:35:43;;;;;;;6.60;6.10;;;13.20;99.90;;;;;;5034811;28;20295;-68
2023/12/24 19:38:09;;;;;;;6.23;5.83;;;13.10;99.90;;;;;;5032520;28;20276;-75
2023/12/24 19:40:35;;;;;;;6.93;6.33;;;13.10;99.90;;;;;;5031481;28;20204;-78
2023/12/24 19:43:02;;;;;;;6.43;5.93;;;13.10;99.90;;;;;;5038348;28;20203;-78
2023/12/24 19:45:28;;;;;;;6.43;5.80;;;13.10;99.90;;;;;;5038916;28;20512;-73
2023/12/24 19:47:54;;;;;;;6.30;5.70;;;13.10;99.90;;;;;;5042537;28;20463;-74
2023/12/24 19:50:20;;;;;;;6.40;5.80;;;13.10;99.90;;;;;;5041187;28;20923;-78
2023/12/24 19:52:45;;;;;;;6.20;5.60;;;13.20;99.90;;;;;;5046280;28;20225;-68
2023/12/24 19:55:11;;;;;;;6.37;5.87;;;13.00;99.90;;;;;;5038299;28;20189;-72
2023/12/24 19:57:37;;;;;;;6.47;6.00;;;13.00;99.90;;;;;;5045379;28;20179;-72
2023/12/24 20:00:04;;;;;;;6.00;5.70;;;13.00;99.90;;;;;;5039498;28;20467;-70
2023/12/24 20:02:30;;;;;;;6.10;5.70;;;13.00;99.90;;;;;;5036315;28;20190;-70
2023/12/24 20:04:55;;;;;;;6.67;6.17;;;13.00;99.90;;;;;;5044021;28;20427;-75
2023/12/24 20:07:22;;;;;;;6.40;5.87;;;13.00;99.90;;;;;;5038064;28;20192;-74
2023/12/24 20:09:47;;;;;;;5.87;5.57;;;13.00;99.90;;;;;;5039855;28;20217;-74
2023/12/24 20:12:13;;;;;;;6.20;5.90;;;13.00;99.90;;;;;;5054794;28;20819;-76
2023/12/24 20:14:39;;;;;;;5.70;5.40;;;12.90;99.90;;;;;;5028940;28;20204;-76
2023/12/24 20:17:05;;;;;;;5.87;5.57;;;13.00;99.90;;;;;;5038631;28;20177;-73
2023/12/24 20:19:34;;;;;;;6.70;6.30;;;13.00;99.90;;;;;;5037261;28;20188;-73
2023/12/24 20:22:00;;;;;;;5.80;5.50;;;13.00;99.90;;;;;;5043134;28;20534;-73
2023/12/24 20:24:26;;;;;;;5.90;5.40;;;13.00;99.90;;;;;;5023810;28;20788;-73
2023/12/24 20:26:52;;;;;;;6.05;5.60;;;13.00;99.90;;;;;;5026557;28;20428;-72
2023/12/24 20:29:17;;;;;;;5.90;5.60;;;13.10;99.90;;;;;;5027065;28;20209;-67
2023/12/24 20:31:43;;;;;;;5.27;4.97;;;13.10;99.90;;;;;;5026743;28;20203;-72
2023/12/24 20:34:12;;;;;;;5.57;5.27;;;13.10;99.90;;;;;;5033328;28;20276;-71
2023/12/24 20:36:39;;;;;;;5.00;4.77;;;13.10;99.90;;;;;;5028899;28;20187;-71
2023/12/24 20:39:09;;;;;;;5.30;4.80;;;13.10;99.90;;;;;;5027336;28;20428;-73
2023/12/24 20:41:35;;;;;;;173.90;125.27;;;13.00;99.90;;;;;;5027174;28;20429;-69
2023/12/24 20:44:01;;;;;;;45.23;35.80;;;13.00;99.90;;;;;;5031624;28;20769;-71
2023/12/24 20:46:28;;;;;;;7.10;6.50;;;13.10;99.90;;;;;;5030181;28;20439;-69
2023/12/24 20:48:54;;;;;;;4.60;4.40;;;13.10;99.90;;;;;;5029018;28;20425;-66
2023/12/24 20:51:20;;;;;;;4.87;4.57;;;13.10;99.90;;;;;;5028576;28;20521;-65
2023/12/24 20:53:46;;;;;;;4.90;4.70;;;13.10;99.90;;;;;;5023712;28;20494;-71
2023/12/24 20:56:12;;;;;;;5.20;4.93;;;13.10;99.90;;;;;;5031512;28;20495;-68
2023/12/24 20:58:39;;;;;;;4.30;4.10;;;13.10;99.90;;;;;;5026952;28;20428;-72
2023/12/24 21:01:07;;;;;;;5.13;4.73;;;13.10;99.90;;;;;;5027075;28;20248;-74
2023/12/24 21:03:33;;;;;;;4.93;4.50;;;13.10;99.90;;;;;;5028189;28;20428;-72
2023/12/24 21:06:01;;;;;;;4.83;4.63;;;13.10;99.90;;;;;;5025123;28;20490;-67
2023/12/24 21:08:27;;;;;;;4.83;4.63;;;13.10;99.90;;;;;;5026176;28;20183;-72
2023/12/24 21:10:52;;;;;;;4.70;4.50;;;13.10;99.90;;;;;;5027468;28;20494;-71
2023/12/24 21:13:18;;;;;;;5.27;5.00;;;13.10;99.90;;;;;;5038563;28;20196;-70
2023/12/24 21:15:44;;;;;;;6.30;5.87;;;13.00;99.90;;;;;;5032977;28;20189;-62
2023/12/24 21:18:10;;;;;;;4.97;4.80;;;13.10;99.90;;;;;;5026724;28;20637;-62
2023/12/24 21:20:36;;;;;;;6.00;5.50;;;13.10;99.90;;;;;;5035399;28;20412;-62
2023/12/24 21:23:01;;;;;;;6.40;6.00;;;13.20;99.90;;;;;;5026194;28;20197;-62
2023/12/24 21:25:27;;;;;;;5.73;5.33;;;13.20;99.90;;;;;;5028787;28;20715;-62
2023/12/24 21:27:53;;;;;;;5.00;4.80;;;13.30;99.90;;;;;;5037756;28;20230;-62
2023/12/24 21:30:19;;;;;;;6.80;6.40;;;13.30;99.90;;;;;;5027492;28;21001;-61
2023/12/24 21:32:45;;;;;;;6.40;6.03;;;13.30;99.90;;;;;;5032441;28;20205;-62
2023/12/24 21:35:11;;;;;;;7.60;7.00;;;13.40;99.90;;;;;;5035831;28;20507;-62
2023/12/24 21:37:37;;;;;;;6.90;6.40;;;13.40;99.90;;;;;;5020117;28;20638;-63
2023/12/24 21:40:03;;;;;;;16.40;14.83;;;13.30;99.90;;;;;;5025590;28;20427;-63
2023/12/24 21:42:29;;;;;;;6.53;5.90;;;13.30;99.90;;;;;;5047191;28;20188;-63
2023/12/24 21:44:55;;;;;;;95.10;75.60;;;13.30;99.90;;;;;;5037962;28;20432;-63
2023/12/24 21:47:21;;;;;;;7.30;6.80;;;13.40;99.90;;;;;;5034113;28;20252;-71
2023/12/24 21:49:47;;;;;;;5.67;5.10;;;13.30;99.90;;;;;;5038012;28;20197;-66
2023/12/24 21:52:12;;;;;;;4.30;4.20;;;13.20;99.90;;;;;;5040229;28;20210;-70
2023/12/24 21:54:38;;;;;;;4.97;4.67;;;13.20;99.90;;;;;;5036935;28;21179;-69
2023/12/24 21:57:04;;;;;;;4.90;4.50;;;13.10;99.90;;;;;;5038046;28;20208;-69
2023/12/24 21:59:30;;;;;;;4.40;4.30;;;13.20;99.90;;;;;;5029590;28;20427;-72
2023/12/24 22:01:56;;;;;;;4.80;4.60;;;13.20;99.90;;;;;;5032248;28;20197;-67
2023/12/24 22:04:22;;;;;;;4.77;4.50;;;;;;;;;;5033380;28;20188;-62
2023/12/24 22:06:49;;;;;;;4.27;4.17;;;13.20;99.90;;;;;;5038758;28;20424;-65
2023/12/24 22:09:15;;;;;;;4.20;4.10;;;13.20;99.90;;;;;;5033868;28;20818;-71
2023/12/24 22:11:41;;;;;;;4.07;3.97;;;13.10;99.90;;;;;;5035160;28;20592;-74
2023/12/24 22:14:07;;;;;;;4.50;4.40;;;13.10;99.90;;;;;;5035573;28;20264;-70
2023/12/24 22:16:33;;;;;;;4.10;3.90;;;13.10;99.90;;;;;;5031339;28;20582;-64
2023/12/24 22:18:58;;;;;;;4.80;4.50;;;13.10;99.90;;;;;;5037549;28;20196;-77
2023/12/24 22:21:25;;;;;;;4.37;4.20;;;13.00;99.90;;;;;;5032276;28;20327;-75
2023/12/24 22:23:51;;;;;;;5.03;4.63;;;13.00;99.90;;;;;;5036014;28;20234;-71
2023/12/24 22:26:18;;;;;;;41.13;32.00;;;13.00;99.90;;;;;;5040851;28;20935;-74
2023/12/24 22:28:44;;;;;;;12.90;11.67;;;13.00;99.90;;;;;;5035060;28;20213;-77
2023/12/24 22:31:10;;;;;;;5.00;4.80;;;13.00;99.90;;;;;;5029140;28;20488;-69
2023/12/24 22:33:37;;;;;;;4.50;4.30;;;13.10;99.90;;;;;;5035129;28;20818;-72
2023/12/24 22:36:05;;;;;;;4.60;4.40;;;13.10;99.90;;;;;;5031465;28;20234;-70
2023/12/24 22:38:32;;;;;;;4.20;4.10;;;13.00;99.90;;;;;;5035025;28;20423;-70
2023/12/24 22:40:58;;;;;;;4.93;4.73;;;12.90;99.90;;;;;;5034257;28;20442;-72
2023/12/24 22:43:24;;;;;;;4.80;4.60;;;12.90;99.90;;;;;;5030714;28;20432;-70
2023/12/24 22:45:49;;;;;;;5.07;4.77;;;12.90;99.90;;;;;;5031478;28;20540;-67
2023/12/24 22:48:15;;;;;;;4.57;4.43;;;12.90;99.90;;;;;;5033422;28;20189;-66
2023/12/24 22:50:41;;;;;;;6.23;5.57;;;12.90;99.90;;;;;;5027616;28;20790;-66
2023/12/24 22:53:10;;;;;;;5.33;4.63;;;12.90;99.90;;;;;;5026117;28;20224;-68
2023/12/24 22:55:37;;;;;;;4.77;4.40;;;12.90;99.90;;;;;;5025711;28;20644;-69
2023/12/24 22:58:03;;;;;;;4.70;4.50;;;12.90;99.90;;;;;;5031499;28;20454;-68
2023/12/24 23:00:29;;;;;;;4.57;4.37;;;12.90;99.90;;;;;;5038927;28;20895;-70
2023/12/24 23:02:54;;;;;;;4.30;4.20;;;12.90;99.90;;;;;;5026606;28;20424;-69
2023/12/24 23:05:20;;;;;;;4.30;4.20;;;12.90;99.90;;;;;;5019480;28;20185;-64
2023/12/24 23:07:46;;;;;;;5.30;5.00;;;12.90;99.90;;;;;;5027617;28;20189;-69
2023/12/24 23:10:12;;;;;;;4.93;4.63;;;12.90;99.90;;;;;;5026627;28;20637;-70
2023/12/24 23:12:37;;;;;;;5.30;4.90;;;13.00;99.90;;;;;;5024419;28;20211;-69
2023/12/24 23:15:04;;;;;;;4.90;4.70;;;12.90;99.90;;;;;;5035040;28;20635;-70
2023/12/24 23:17:30;;;;;;;5.30;5.00;;;12.90;99.90;;;;;;5026926;28;20218;-67
2023/12/24 23:19:55;;;;;;;5.33;5.13;;;12.90;99.90;;;;;;5036831;28;20514;-68
2023/12/24 23:22:21;;;;;;;4.90;4.70;;;12.90;99.90;;;;;;5029448;28;20735;-64
2023/12/24 23:24:47;;;;;;;4.90;4.70;;;12.90;99.90;;;;;;5026845;28;20181;-75
2023/12/24 23:27:12;;;;;;;4.90;4.80;;;12.90;99.90;;;;;;5029713;28;20188;-69
2023/12/24 23:29:41;;;;;;;4.97;4.70;;;12.90;99.90;;;;;;5032257;28;21027;-66
2023/12/24 23:32:07;;;;;;;5.00;4.80;;;12.90;99.90;;;;;;5027837;28;20234;-70
2023/12/24 23:34:32;;;;;;;5.60;5.30;;;12.90;99.90;;;;;;5029894;28;20786;-68
2023/12/24 23:36:58;;;;;;;4.90;4.70;;;12.90;99.90;;;;;;5031980;28;20186;-70
2023/12/24 23:39:24;;;;;;;4.63;4.40;;;12.80;99.90;;;;;;5031387;28;20185;-69
2023/12/24 23:41:50;;;;;;;4.50;4.30;;;12.90;99.90;;;;;;5030795;28;20197;-66
2023/12/24 23:44:16;;;;;;;4.30;4.20;;;12.80;99.90;;;;;;5029229;28;20185;-69
2023/12/24 23:46:41;;;;;;;4.37;4.07;;;12.90;99.90;;;;;;5030491;28;20183;-70
2023/12/24 23:49:07;;;;;;;3.90;3.80;;;12.90;99.90;;;;;;5034365;28;20185;-68
2023/12/24 23:51:33;;;;;;;4.30;4.10;;;13.00;99.90;;;;;;5029597;28;20221;-69
2023/12/24 23:53:58;;;;;;;4.37;4.17;;;13.10;99.90;;;;;;5029656;28;20265;-70
2023/12/24 23:56:24;;;;;;;4.80;4.70;;;13.00;99.90;;;;;;5037283;28;20665;-74
2023/12/24 23:58:50;;;;;;;4.30;4.20;;;13.00;99.90;;;;;;5033609;28;20212;-68
